createdAt,value
2022-11-24T00:02:15.596Z,69.69
2022-11-24T00:04:42.322Z,70.45
2022-11-24T00:07:08.987Z,70.65
2022-11-24T00:09:35.645Z,69.74
2022-11-24T00:12:02.290Z,69.48
2022-11-24T00:14:28.910Z,69.78
2022-11-24T00:16:55.589Z,71.60
2022-11-24T00:19:22.293Z,71.56
2022-11-24T00:21:48.929Z,72.20
2022-11-24T00:24:15.638Z,72.17
2022-11-24T00:26:42.278Z,72.30
2022-11-24T00:29:09.361Z,72.01
2022-11-24T00:31:40.485Z,72.02
2022-11-24T00:34:10.214Z,71.32
2022-11-24T00:36:36.919Z,71.72
2022-11-24T00:39:05.295Z,71.35
2022-11-24T00:41:31.990Z,71.71
2022-11-24T00:43:58.629Z,72.44
2022-11-24T00:46:25.490Z,71.36
2022-11-24T00:48:52.313Z,71.60
2022-11-24T00:51:19.221Z,71.98
2022-11-24T00:53:45.859Z,72.47
2022-11-24T00:56:12.495Z,72.43
2022-11-24T00:58:39.134Z,70.89
2022-11-24T01:01:12.829Z,70.95
2022-11-24T01:03:39.560Z,71.09
2022-11-24T01:06:07.752Z,71.45
2022-11-24T01:08:34.522Z,71.95
2022-11-24T01:11:18.402Z,72.00
2022-11-24T01:13:45.903Z,71.95
2022-11-24T01:16:20.333Z,73.25
2022-11-24T01:18:47.053Z,72.19
2022-11-24T01:21:13.854Z,72.25
2022-11-24T01:23:40.510Z,72.23
2022-11-24T01:26:09.533Z,71.51
2022-11-24T01:28:37.031Z,71.89
2022-11-24T01:31:06.002Z,71.75
2022-11-24T01:33:33.718Z,71.48
2022-11-24T01:36:00.369Z,70.87
2022-11-24T01:38:27.115Z,71.35
2022-11-24T01:41:05.965Z,71.24
2022-11-24T01:43:32.675Z,71.12
2022-11-24T01:46:20.620Z,71.66
2022-11-24T01:48:53.313Z,71.35
2022-11-24T01:51:24.918Z,71.27
2022-11-24T01:54:00.876Z,72.35
2022-11-24T01:56:27.793Z,72.25
2022-11-24T01:58:56.137Z,70.98
2022-11-24T02:01:22.870Z,71.70
2022-11-24T02:03:49.584Z,71.68
2022-11-24T02:06:19.561Z,70.75
2022-11-24T02:09:00.879Z,70.78
2022-11-24T02:11:29.276Z,71.51
2022-11-24T02:13:55.945Z,70.76
2022-11-24T02:16:22.753Z,71.07
2022-11-24T02:18:49.433Z,71.21
2022-11-24T02:21:16.064Z,70.75
2022-11-24T02:23:54.592Z,71.49
2022-11-24T02:26:40.490Z,72.05
2022-11-24T02:29:07.247Z,71.36
2022-11-24T02:31:33.969Z,70.83
2022-11-24T02:34:00.618Z,71.43
2022-11-24T02:36:27.247Z,71.13
2022-11-24T02:38:53.889Z,71.25
2022-11-24T02:41:21.603Z,72.06
2022-11-24T02:44:00.196Z,71.29
2022-11-24T02:46:26.877Z,71.76
2022-11-24T02:48:53.528Z,71.39
2022-11-24T02:51:20.172Z,71.35
2022-11-24T02:53:46.825Z,71.46
2022-11-24T02:56:13.434Z,70.45
2022-11-24T02:58:40.081Z,69.96
2022-11-24T03:01:06.813Z,70.59
2022-11-24T03:03:33.570Z,70.42
2022-11-24T03:06:00.184Z,69.48
2022-11-24T03:08:26.892Z,70.14
2022-11-24T03:10:53.526Z,70.38
2022-11-24T03:13:20.211Z,70.38
2022-11-24T03:15:46.942Z,71.14
2022-11-24T03:18:13.647Z,70.63
2022-11-24T03:20:40.300Z,71.24
2022-11-24T03:23:06.935Z,71.02
2022-11-24T03:25:33.915Z,69.98
2022-11-24T03:28:00.596Z,70.85
2022-11-24T03:30:27.332Z,70.85
2022-11-24T03:32:53.947Z,70.13
2022-11-24T03:35:21.161Z,69.72
2022-11-24T03:37:47.780Z,69.34
2022-11-24T03:40:14.458Z,70.46
2022-11-24T03:42:41.104Z,70.01
2022-11-24T03:45:44.845Z,70.33
2022-11-24T03:47:54.762Z,70.26
2022-11-24T03:50:21.453Z,69.87
2022-11-24T03:52:48.093Z,70.12
2022-11-24T03:55:14.756Z,70.41
2022-11-24T03:57:41.390Z,70.02
2022-11-24T04:00:08.713Z,70.44
2022-11-24T04:02:35.385Z,70.18
2022-11-24T04:05:02.031Z,70.90
2022-11-24T04:07:28.747Z,70.93
2022-11-24T04:09:55.425Z,70.60
2022-11-24T04:12:22.085Z,70.24
2022-11-24T04:14:48.718Z,70.15
2022-11-24T04:17:15.357Z,69.51
2022-11-24T04:19:41.987Z,69.32
2022-11-24T04:22:08.646Z,70.49
2022-11-24T04:24:35.514Z,69.37
2022-11-24T04:27:02.315Z,69.76
2022-11-24T04:29:28.972Z,70.25
2022-11-24T04:31:55.645Z,69.63
2022-11-24T04:34:22.360Z,69.25
2022-11-24T04:36:48.982Z,68.51
2022-11-24T04:39:19.815Z,68.83
2022-11-24T04:41:53.325Z,68.88
2022-11-24T04:44:19.957Z,69.65
2022-11-24T04:46:46.676Z,69.24
2022-11-24T04:49:13.418Z,70.65
2022-11-24T04:51:40.267Z,71.04
2022-11-24T04:54:07.425Z,70.43
2022-11-24T04:56:34.045Z,70.07
2022-11-24T04:59:05.158Z,69.21
2022-11-24T05:01:34.636Z,69.14
2022-11-24T05:04:01.357Z,69.13
2022-11-24T05:06:28.105Z,68.91
2022-11-24T05:08:54.736Z,69.52
2022-11-24T05:11:21.371Z,69.47
2022-11-24T05:13:48.000Z,68.75
2022-11-24T05:16:14.684Z,69.40
2022-11-24T05:18:41.380Z,70.25
2022-11-24T05:21:08.072Z,68.64
2022-11-24T05:23:34.668Z,69.43
2022-11-24T05:26:01.437Z,68.51
2022-11-24T05:28:28.184Z,69.12
2022-11-24T05:30:55.001Z,68.98
2022-11-24T05:33:21.650Z,69.20
2022-11-24T05:35:48.696Z,71.15
2022-11-24T05:38:18.474Z,70.02
2022-11-24T05:40:45.120Z,69.30
2022-11-24T05:43:12.521Z,69.01
2022-11-24T05:45:39.159Z,68.70
2022-11-24T05:48:06.703Z,69.18
2022-11-24T05:50:33.599Z,69.71
2022-11-24T05:53:10.859Z,69.60
2022-11-24T05:55:37.566Z,70.31
2022-11-24T05:58:05.733Z,69.79
2022-11-24T06:00:32.693Z,70.04
2022-11-24T06:02:59.649Z,69.69
2022-11-24T06:05:26.785Z,70.00
2022-11-24T06:07:53.547Z,69.68
2022-11-24T06:10:20.544Z,69.10
2022-11-24T06:12:47.161Z,69.60
2022-11-24T06:15:13.931Z,68.90
2022-11-24T06:17:40.614Z,69.04
2022-11-24T06:20:08.255Z,69.57
2022-11-24T06:22:34.832Z,70.07
2022-11-24T06:25:01.494Z,69.71
2022-11-24T06:27:28.131Z,69.42
2022-11-24T06:29:54.765Z,69.58
2022-11-24T06:32:21.369Z,69.04
2022-11-24T06:34:47.955Z,68.84
2022-11-24T06:37:14.773Z,69.17
2022-11-24T06:39:41.369Z,69.03
2022-11-24T06:42:08.006Z,69.24
2022-11-24T06:44:34.906Z,67.97
2022-11-24T06:47:01.617Z,68.73
2022-11-24T06:49:28.244Z,68.28
2022-11-24T06:51:55.054Z,68.11
2022-11-24T06:54:21.699Z,67.74
2022-11-24T06:56:48.293Z,66.56
2022-11-24T06:59:18.842Z,67.07
2022-11-24T07:01:45.461Z,66.96
2022-11-24T07:04:12.046Z,67.21
2022-11-24T07:06:38.672Z,67.51
2022-11-24T07:09:05.388Z,66.80
2022-11-24T07:11:32.058Z,67.02
2022-11-24T07:14:00.190Z,66.59
2022-11-24T07:16:27.000Z,67.72
2022-11-24T07:18:53.732Z,68.68
2022-11-24T07:21:20.954Z,68.38
2022-11-24T07:23:54.623Z,68.42
2022-11-24T07:26:21.757Z,67.04
2022-11-24T07:28:48.509Z,67.02
2022-11-24T07:31:20.633Z,67.53
2022-11-24T07:33:51.306Z,66.38
2022-11-24T07:36:17.906Z,66.03
2022-11-24T07:38:44.503Z,65.37
2022-11-24T07:41:12.330Z,65.44
2022-11-24T07:43:39.116Z,65.32
2022-11-24T07:46:06.727Z,64.54
2022-11-24T07:48:33.805Z,64.90
2022-11-24T07:51:00.956Z,64.65
2022-11-24T07:53:27.840Z,64.30
2022-11-24T07:55:58.209Z,64.77
2022-11-24T07:58:30.348Z,65.68
2022-11-24T08:00:58.984Z,66.11
2022-11-24T08:03:25.686Z,66.33
2022-11-24T08:06:22.086Z,66.82
2022-11-24T08:08:42.611Z,66.73
2022-11-24T08:11:11.046Z,66.84
2022-11-24T08:13:38.957Z,66.92
2022-11-24T08:16:06.852Z,66.44
2022-11-24T08:18:34.399Z,65.38
2022-11-24T08:21:01.011Z,65.28
2022-11-24T08:23:27.729Z,65.14
2022-11-24T08:25:56.962Z,65.08
2022-11-24T08:28:24.053Z,65.82
2022-11-24T08:30:50.690Z,64.99
2022-11-24T08:33:17.285Z,65.08
2022-11-24T08:35:44.072Z,65.04
2022-11-24T08:38:10.667Z,63.75
2022-11-24T08:40:37.305Z,62.20
2022-11-24T08:43:03.944Z,61.94
2022-11-24T08:45:30.881Z,62.30
2022-11-24T08:47:57.586Z,62.82
2022-11-24T08:50:24.395Z,63.45
2022-11-24T08:52:53.745Z,63.47
2022-11-24T08:55:20.529Z,63.43
2022-11-24T08:57:47.148Z,63.22
2022-11-24T09:00:14.157Z,63.05
2022-11-24T09:02:40.728Z,62.22
2022-11-24T09:05:28.844Z,61.96
2022-11-24T09:07:54.228Z,62.33
2022-11-24T09:10:20.931Z,61.87
2022-11-24T09:12:47.543Z,62.02
2022-11-24T09:15:14.290Z,62.31
2022-11-24T09:17:40.916Z,60.54
2022-11-24T09:20:08.702Z,60.73
2022-11-24T09:22:35.461Z,60.24
2022-11-24T09:25:02.121Z,59.48
2022-11-24T09:27:28.719Z,59.42
2022-11-24T09:29:55.326Z,58.83
2022-11-24T09:32:21.943Z,58.34
2022-11-24T09:34:50.440Z,57.97
2022-11-24T09:37:17.980Z,57.34
2022-11-24T09:39:44.658Z,58.10
2022-11-24T09:42:25.614Z,58.27
2022-11-24T09:44:58.170Z,56.79
2022-11-24T09:48:02.977Z,56.11
2022-11-24T09:50:34.566Z,55.46
2022-11-24T09:53:28.856Z,56.41
2022-11-24T09:55:56.847Z,57.27
2022-11-24T09:58:48.265Z,58.17
2022-11-24T10:01:24.839Z,58.17
2022-11-24T10:03:51.939Z,58.25
2022-11-24T10:06:18.485Z,58.83
2022-11-24T10:09:03.227Z,58.71
2022-11-24T10:11:50.899Z,58.83
2022-11-24T10:14:36.163Z,58.51
2022-11-24T10:17:25.100Z,58.33
2022-11-24T10:19:58.471Z,57.85
2022-11-24T10:22:25.036Z,57.66
2022-11-24T10:25:21.118Z,57.35
2022-11-24T10:27:50.178Z,57.63
2022-11-24T10:30:21.616Z,57.84
2022-11-24T10:32:49.613Z,56.69
2022-11-24T10:35:21.213Z,56.09
2022-11-24T10:38:20.102Z,54.01
2022-11-24T10:40:57.792Z,53.15
2022-11-24T10:43:28.057Z,53.09
2022-11-24T10:45:59.781Z,52.88
2022-11-24T10:48:27.244Z,52.87
2022-11-24T10:50:54.183Z,52.71
2022-11-24T10:53:28.166Z,53.70
2022-11-24T10:55:54.637Z,53.80
2022-11-24T10:58:24.121Z,54.14
2022-11-24T11:00:50.763Z,54.56
2022-11-24T11:03:19.616Z,55.83
2022-11-24T11:06:14.807Z,55.06
2022-11-24T11:08:41.425Z,55.60
2022-11-24T11:11:26.694Z,57.24
2022-11-24T11:14:04.255Z,56.54
2022-11-24T11:16:43.330Z,56.28
2022-11-24T11:19:54.377Z,57.05
2022-11-24T11:22:47.005Z,55.91
2022-11-24T11:25:13.505Z,55.33
2022-11-24T11:27:40.584Z,54.79
2022-11-24T11:36:09.800Z,55.53
2022-11-24T11:38:37.841Z,55.28
2022-11-24T11:41:04.496Z,57.04
2022-11-24T11:43:38.810Z,56.65
2022-11-24T11:46:12.447Z,56.19
2022-11-24T11:48:46.277Z,55.91
2022-11-24T11:51:43.728Z,56.11
2022-11-24T11:54:25.333Z,58.58
2022-11-24T11:57:11.184Z,57.70
2022-11-24T11:59:56.271Z,57.56
2022-11-24T12:02:49.949Z,58.78
2022-11-24T12:05:38.870Z,56.70
2022-11-24T12:08:24.418Z,57.24
2022-11-24T12:11:12.077Z,54.50
2022-11-24T12:14:02.005Z,54.75
2022-11-24T12:16:50.583Z,53.45
2022-11-24T12:19:47.465Z,54.41
2022-11-24T12:22:27.488Z,53.74
2022-11-24T12:25:23.449Z,53.72
2022-11-24T12:28:17.821Z,51.77
2022-11-24T12:31:06.412Z,51.54
2022-11-24T12:33:35.856Z,51.20
2022-11-24T12:36:09.455Z,49.56
2022-11-24T12:38:39.004Z,48.94
2022-11-24T12:41:45.233Z,50.62
2022-11-24T12:44:27.686Z,50.08
2022-11-24T12:47:03.564Z,50.96
2022-11-24T12:49:35.795Z,51.43
2022-11-24T12:52:10.288Z,50.49
2022-11-24T12:54:39.277Z,51.24
2022-11-24T12:57:11.114Z,51.69
2022-11-24T12:59:59.077Z,52.41
2022-11-24T13:02:50.333Z,51.94
2022-11-24T13:05:40.147Z,51.88
2022-11-24T13:08:06.812Z,51.58
2022-11-24T13:10:55.283Z,49.72
2022-11-24T13:13:24.000Z,51.46
2022-11-24T13:16:28.508Z,51.66
2022-11-24T13:19:16.016Z,51.31
2022-11-24T13:21:42.543Z,53.46
2022-11-24T13:24:19.346Z,53.60
2022-11-24T13:26:48.425Z,54.40
2022-11-24T13:29:27.268Z,55.16
2022-11-24T13:32:02.971Z,55.69
2022-11-24T13:34:38.613Z,55.16
2022-11-24T13:37:34.877Z,57.19
2022-11-24T13:40:11.428Z,55.60
2022-11-24T13:42:56.356Z,57.15
2022-11-24T13:45:41.464Z,56.45
2022-11-24T13:48:20.322Z,58.44
2022-11-24T13:50:50.381Z,60.07
2022-11-24T13:53:31.272Z,58.29
2022-11-24T13:55:58.540Z,59.11
2022-11-24T13:58:34.767Z,60.28
2022-11-24T14:01:04.313Z,59.90
2022-11-24T14:04:28.184Z,59.88
2022-11-24T14:06:52.800Z,60.70
2022-11-24T14:09:26.768Z,59.94
2022-11-24T14:12:16.362Z,61.16
2022-11-24T14:14:43.865Z,60.16
2022-11-24T14:17:13.184Z,60.21
2022-11-24T14:19:40.626Z,58.90
2022-11-24T14:22:14.769Z,59.94
2022-11-24T14:24:41.946Z,60.12
2022-11-24T14:27:15.846Z,60.59
2022-11-24T14:30:02.062Z,60.74
2022-11-24T14:32:28.646Z,60.95
2022-11-24T14:34:55.285Z,61.39
2022-11-24T14:37:21.937Z,61.41
2022-11-24T14:39:48.619Z,61.42
2022-11-24T14:42:27.743Z,61.53
2022-11-24T14:44:58.830Z,60.97
2022-11-24T14:47:34.745Z,62.75
2022-11-24T14:50:19.403Z,62.18
2022-11-24T14:52:52.162Z,61.98
2022-11-24T14:55:27.273Z,62.98
2022-11-24T14:57:53.979Z,62.90
2022-11-24T15:00:30.341Z,62.68
2022-11-24T15:03:18.234Z,62.78
2022-11-24T15:05:51.512Z,63.69
2022-11-24T15:08:18.204Z,62.93
2022-11-24T15:10:44.925Z,64.38
2022-11-24T15:13:23.039Z,64.66
2022-11-24T15:16:03.240Z,64.72
2022-11-24T15:18:49.189Z,64.25
2022-11-24T15:21:19.181Z,63.45
2022-11-24T15:24:05.417Z,64.57
2022-11-24T15:26:36.722Z,66.26
2022-11-24T15:29:06.796Z,65.01
2022-11-24T15:31:33.526Z,66.09
2022-11-24T15:34:00.203Z,66.82
2022-11-24T15:36:26.857Z,67.30
2022-11-24T15:38:53.621Z,67.42
2022-11-24T15:41:21.012Z,67.56
2022-11-24T15:43:47.627Z,66.63
2022-11-24T15:46:14.283Z,67.72
2022-11-24T15:48:41.000Z,68.19
2022-11-24T15:51:11.774Z,68.22
2022-11-24T15:53:40.331Z,68.25
2022-11-24T15:56:08.469Z,68.63
2022-11-24T15:58:35.154Z,68.84
2022-11-24T16:01:01.930Z,68.77
2022-11-24T16:03:47.605Z,68.64
2022-11-24T16:06:22.251Z,68.93
2022-11-24T16:08:51.087Z,68.89
2022-11-24T16:11:17.678Z,68.81
2022-11-24T16:13:48.547Z,69.06
2022-11-24T16:16:16.982Z,69.12
2022-11-24T16:18:43.655Z,68.96
2022-11-24T16:21:10.284Z,68.78
2022-11-24T16:23:37.271Z,69.13
2022-11-24T16:26:04.482Z,68.52
2022-11-24T16:28:31.623Z,68.54
2022-11-24T16:30:58.249Z,68.40
2022-11-24T16:33:24.905Z,68.35
2022-11-24T16:35:51.538Z,68.40
2022-11-24T16:38:19.223Z,68.73
2022-11-24T16:40:51.301Z,69.32
2022-11-24T16:43:17.971Z,68.98
2022-11-24T16:45:45.728Z,68.44
2022-11-24T16:48:12.481Z,68.20
2022-11-24T16:50:39.140Z,68.49
2022-11-24T16:53:05.730Z,67.98
2022-11-24T16:55:32.364Z,67.51
2022-11-24T16:57:59.149Z,68.24
2022-11-24T17:00:25.787Z,68.48
2022-11-24T17:02:52.555Z,68.72
2022-11-24T17:05:19.182Z,68.20
2022-11-24T17:07:45.844Z,66.92
2022-11-24T17:10:12.482Z,67.63
2022-11-24T17:12:39.115Z,67.99
2022-11-24T17:18:16.667Z,68.41
2022-11-24T17:20:39.011Z,67.68
2022-11-24T17:23:05.720Z,68.37
2022-11-24T17:25:32.901Z,67.95
2022-11-24T17:27:59.775Z,68.35
2022-11-24T17:30:26.431Z,68.12
2022-11-24T17:32:56.811Z,68.25
2022-11-24T17:35:23.790Z,69.55
2022-11-24T17:37:50.555Z,69.20
2022-11-24T17:40:32.380Z,68.42
2022-11-24T17:42:59.796Z,67.72
2022-11-24T17:45:27.045Z,68.15
2022-11-24T17:47:53.730Z,68.69
2022-11-24T17:50:25.387Z,67.35
2022-11-24T17:52:52.885Z,67.08
2022-11-24T17:55:19.518Z,68.77
2022-11-24T17:57:46.337Z,67.79
2022-11-24T18:00:13.571Z,67.00
2022-11-24T18:02:40.318Z,67.02
2022-11-24T18:05:07.187Z,67.99
2022-11-24T18:07:35.513Z,66.58
2022-11-24T18:10:02.199Z,66.99
2022-11-24T18:12:28.872Z,66.82
2022-11-24T18:14:55.481Z,66.81
2022-11-24T18:17:22.117Z,66.63
2022-11-24T18:19:48.754Z,66.24
2022-11-24T18:22:15.365Z,65.31
2022-11-24T18:24:41.963Z,66.15
2022-11-24T18:27:08.553Z,65.43
2022-11-24T18:29:35.165Z,64.48
2022-11-24T18:32:01.842Z,65.06
2022-11-24T18:34:28.494Z,65.67
2022-11-24T18:36:55.138Z,65.29
2022-11-24T18:39:21.814Z,65.95
2022-11-24T18:41:48.539Z,66.64
2022-11-24T18:44:15.151Z,67.09
2022-11-24T18:46:41.789Z,65.15
2022-11-24T18:49:08.423Z,66.69
2022-11-24T18:51:35.018Z,67.51
2022-11-24T18:54:01.708Z,66.90
2022-11-24T18:56:28.386Z,65.64
2022-11-24T18:58:55.701Z,66.61
2022-11-24T19:01:24.289Z,67.25
2022-11-24T19:03:52.576Z,67.24
2022-11-24T19:06:20.571Z,68.44
2022-11-24T19:08:47.303Z,67.18
2022-11-24T19:11:21.417Z,68.20
2022-11-24T19:13:48.092Z,68.68
2022-11-24T19:16:15.107Z,67.71
2022-11-24T19:18:44.731Z,68.22
2022-11-24T19:21:13.054Z,67.15
2022-11-24T19:23:39.672Z,67.04
2022-11-24T19:26:06.356Z,65.75
2022-11-24T19:28:32.991Z,65.51
2022-11-24T19:31:00.913Z,66.11
2022-11-24T19:33:27.611Z,65.31
2022-11-24T19:36:29.480Z,67.11
2022-11-24T19:38:56.559Z,67.23
2022-11-24T19:41:27.693Z,67.11
2022-11-24T19:43:54.320Z,67.29
2022-11-24T19:46:21.489Z,66.40
2022-11-24T19:48:49.517Z,68.41
2022-11-24T19:51:20.744Z,68.14
2022-11-24T19:53:47.448Z,67.73
2022-11-24T19:56:18.074Z,67.80
2022-11-24T19:58:44.698Z,68.17
2022-11-24T20:01:12.894Z,67.23
2022-11-24T20:03:39.866Z,67.10
2022-11-24T20:06:07.419Z,65.98
2022-11-24T20:08:34.795Z,67.32
2022-11-24T20:11:14.595Z,67.17
2022-11-24T20:13:41.810Z,66.10
2022-11-24T20:16:10.217Z,66.28
2022-11-24T20:18:42.401Z,64.32
2022-11-24T20:21:19.641Z,64.92
2022-11-24T20:23:52.630Z,66.42
2022-11-24T20:26:19.963Z,65.93
2022-11-24T20:28:47.003Z,64.70
2022-11-24T20:31:18.622Z,65.35
2022-11-24T20:33:45.317Z,64.71
2022-11-24T20:36:13.389Z,65.69
2022-11-24T20:38:40.295Z,65.02
2022-11-24T20:41:11.143Z,63.26
2022-11-24T20:43:38.110Z,63.44
2022-11-24T20:46:18.705Z,64.92
2022-11-24T20:48:45.350Z,64.62
2022-11-24T20:51:17.065Z,62.87
2022-11-24T20:53:43.902Z,64.50
2022-11-24T20:56:17.906Z,65.02
2022-11-24T20:58:44.481Z,64.61
2022-11-24T21:01:14.789Z,66.68
2022-11-24T21:03:43.520Z,64.42
2022-11-24T21:06:11.293Z,64.61
2022-11-24T21:08:38.526Z,62.62
2022-11-24T21:11:05.443Z,64.30
2022-11-24T21:13:32.984Z,64.92
2022-11-24T21:15:59.852Z,64.39
2022-11-24T21:18:26.536Z,64.50
2022-11-24T21:20:53.183Z,62.99
2022-11-24T21:23:19.811Z,65.86
2022-11-24T21:25:46.411Z,64.74
2022-11-24T21:28:12.985Z,65.50
2022-11-24T21:30:39.579Z,64.51
2022-11-24T21:33:06.180Z,65.15
2022-11-24T21:35:35.861Z,62.42
2022-11-24T21:38:03.037Z,65.90
2022-11-24T21:40:29.625Z,64.30
2022-11-24T21:42:58.332Z,63.27
2022-11-24T21:45:25.226Z,64.36
2022-11-24T21:47:51.877Z,66.32
2022-11-24T21:50:18.458Z,64.92
2022-11-24T21:52:45.061Z,64.99
2022-11-24T21:55:11.690Z,65.74
2022-11-24T21:57:38.343Z,65.53
2022-11-24T22:00:05.816Z,63.92
2022-11-24T22:02:32.454Z,63.99
2022-11-24T22:04:59.106Z,64.98
2022-11-24T22:07:25.750Z,61.78
2022-11-24T22:09:52.366Z,63.44
2022-11-24T22:12:18.942Z,64.62
2022-11-24T22:14:45.876Z,62.91
2022-11-24T22:17:12.585Z,63.36
2022-11-24T22:19:39.177Z,63.16
2022-11-24T22:22:06.100Z,64.25
2022-11-24T22:24:33.957Z,65.64
2022-11-24T22:27:00.592Z,62.93
2022-11-24T22:29:27.169Z,62.98
2022-11-24T22:31:53.846Z,64.41
2022-11-24T22:34:20.483Z,64.26
2022-11-24T22:36:47.074Z,65.21
2022-11-24T22:39:13.698Z,67.07
2022-11-24T22:41:40.276Z,65.26
2022-11-24T22:44:06.911Z,64.86
2022-11-24T22:46:33.609Z,64.50
2022-11-24T22:49:00.336Z,63.08
2022-11-24T22:51:28.629Z,64.88
2022-11-24T22:53:56.695Z,64.68
2022-11-24T22:56:23.374Z,64.58
2022-11-24T22:58:50.253Z,61.90
2022-11-24T23:01:18.587Z,63.60
2022-11-24T23:03:45.482Z,64.16
2022-11-24T23:06:19.195Z,65.15
2022-11-24T23:08:45.874Z,64.97
2022-11-24T23:11:14.179Z,63.97
2022-11-24T23:13:40.951Z,63.83
2022-11-24T23:16:17.117Z,65.57
2022-11-24T23:18:44.245Z,65.86
2022-11-24T23:21:15.045Z,64.95
2022-11-24T23:23:41.777Z,64.45
2022-11-24T23:26:10.303Z,66.13
2022-11-24T23:28:37.100Z,64.63
2022-11-24T23:31:04.529Z,65.63
2022-11-24T23:33:31.183Z,66.46
2022-11-24T23:36:11.160Z,65.89
2022-11-24T23:38:38.220Z,65.44
2022-11-24T23:41:06.519Z,66.09
2022-11-24T23:43:33.661Z,65.12
2022-11-24T23:46:03.736Z,64.91
2022-11-24T23:48:30.490Z,65.12
2022-11-24T23:50:57.135Z,65.06
2022-11-24T23:53:24.982Z,64.95
2022-11-24T23:55:54.794Z,63.70
2022-11-24T23:58:22.394Z,62.33
